Address 0xd54b4f7f9dd537ebf24deec14abfdea14e34b062

 
Ad
Ad
Txn Hash Method
Block
From
To
Value [Txn Fee]
0xd996c6c0614978cf6d63c55c33856abc83f63564f8981eb537de99252440b3b3Execute Meta Tra...207151612021-10-28 20:07:064 mins ago0xd54b4f7f9dd537ebf24deec14abfdea14e34b062OUT 0x89aac1f5ccdd54dd8a09e5c858f19a665e4fa32b0 MATIC0.006639549
0x866c7c83b0f065ec65e8c7e2e0f9dc71c7644dce88b30f2e5d4132d5b791a57eExecute Meta Tra...207148392021-10-28 19:53:5317 mins ago0xd54b4f7f9dd537ebf24deec14abfdea14e34b062OUT 0x89aac1f5ccdd54dd8a09e5c858f19a665e4fa32b0 MATIC0.00282654
0xdba4f762cf01180a2785edc39d191a426ed1db8c73938cdc53e066d1906189a2Execute Meta Tra...207143992021-10-28 19:38:1633 mins ago0xd54b4f7f9dd537ebf24deec14abfdea14e34b062OUT 0x89aac1f5ccdd54dd8a09e5c858f19a665e4fa32b0 MATIC0.007924179
0x62b88fd21c6d4459c97b7b6f282697aaf68aed34fc74e134ee5733b1a754e3a2Execute Meta Tra...207139262021-10-28 19:22:0249 mins ago0xd54b4f7f9dd537ebf24deec14abfdea14e34b062OUT 0x89aac1f5ccdd54dd8a09e5c858f19a665e4fa32b0 MATIC0.006425391417
0xe1ba38b4ddb8db31303f24cf8092ba3b20b1a1c04bf506463918b158993675d3Execute Meta Tra...207136782021-10-28 19:09:141 hr 2 mins ago0xd54b4f7f9dd537ebf24deec14abfdea14e34b062OUT 0x89aac1f5ccdd54dd8a09e5c858f19a665e4fa32b0 MATIC0.008802293043
0xd65ef0f94315a83a6a31d1ac1a996437071511d96d831ad29b1f364ee9130351Execute Meta Tra...207131322021-10-28 18:50:241 hr 21 mins ago0xd54b4f7f9dd537ebf24deec14abfdea14e34b062OUT 0x89aac1f5ccdd54dd8a09e5c858f19a665e4fa32b0 MATIC0.0214179
0xe8d37992d2cc7df4debbd957cdc97a67ba1256d6b0dcca871e585d49c0dff605Execute Meta Tra...207128602021-10-28 18:36:081 hr 35 mins ago0xd54b4f7f9dd537ebf24deec14abfdea14e34b062OUT 0x89aac1f5ccdd54dd8a09e5c858f19a665e4fa32b0 MATIC0.00642537
0x00d47c596103564eade9e401ee74cca342fa51fcb2de4e4c8cadc7b99af4d442Execute Meta Tra...207121912021-10-28 18:08:502 hrs 2 mins ago0xd54b4f7f9dd537ebf24deec14abfdea14e34b062OUT 0x89aac1f5ccdd54dd8a09e5c858f19a665e4fa32b0 MATIC0.00642501
0x8402856a7a658739d59a6c59202b59181251a43af8b1430a9d93fa89cbeb36030x41706c4e207118202021-10-28 17:56:082 hrs 15 mins ago0xd54b4f7f9dd537ebf24deec14abfdea14e34b062OUT 0x86c80a8aa58e0a4fa09a69624c31ab2a6cad56b80 MATIC0.01588416
0xbf36725f7442c8f1a38645e2387bb044679f80cb492ab012faacaf8719523b86Execute Meta Tra...207115932021-10-28 17:45:532 hrs 25 mins ago0xd54b4f7f9dd537ebf24deec14abfdea14e34b062OUT 0xa102072a4c07f06ec3b4900fdc4c7b80b6c574290 MATIC0.0058083
0xbf7f4d6a39e7a9a833c5721df25ed79b3f7ecc73def41f54174d0e2961b49599Execute Meta Tra...207113232021-10-28 17:34:292 hrs 36 mins ago0xd54b4f7f9dd537ebf24deec14abfdea14e34b062OUT 0x4e7a0681545e606845905ad6ba931e47bfc3a75b0 MATIC0.00432858
0xbe8bc0020a32e04b9f82c9e5da7c0f7e57a6cec92a39f44811043d0d4475927cForward Meta Tx207110042021-10-28 17:23:312 hrs 47 mins ago0xd54b4f7f9dd537ebf24deec14abfdea14e34b062OUT 0x0babda04f62c549a09ef3313fe187f29c099ff3c0 MATIC0.00709272
0xe26e305ee11ac4e46b6d39b2e52ceb0e63482ea8348137577798bb537f6f4659Execute Meta Tra...207106792021-10-28 17:12:212 hrs 59 mins ago0xd54b4f7f9dd537ebf24deec14abfdea14e34b062OUT 0x89aac1f5ccdd54dd8a09e5c858f19a665e4fa32b0 MATIC0.00824984822
0x3a20de56e8cc3a8ee10adc88a912ea485beaae4ad080c7ac3b192ba7319b0b8bExecute Meta Tra...207095162021-10-28 16:30:153 hrs 41 mins ago0xd54b4f7f9dd537ebf24deec14abfdea14e34b062OUT 0xa5f1ea7df861952863df2e8d1312f7305dabf2150 MATIC0.003679038
0x9844b41c1971abc3c586127368ac62cb3cb042f5cb17215574566695f650a85eExecute Meta Tra...207087332021-10-28 16:02:334 hrs 8 mins ago0xd54b4f7f9dd537ebf24deec14abfdea14e34b062OUT 0x89aac1f5ccdd54dd8a09e5c858f19a665e4fa32b0 MATIC0.03426672
0x5807cefb98624191a0cb72c4eb1dc33b3aff339810cd56c30e353f6487ac5fc3Execute Meta Tra...207084912021-10-28 15:52:134 hrs 19 mins ago0xd54b4f7f9dd537ebf24deec14abfdea14e34b062OUT 0xa5f1ea7df861952863df2e8d1312f7305dabf2150 MATIC0.003986538
0xf44ecb091ab97a08feee38e785277c1b919fedd5786db990a4c1120628e86951Forward Meta Tx207082312021-10-28 15:43:134 hrs 28 mins ago0xd54b4f7f9dd537ebf24deec14abfdea14e34b062OUT 0x0babda04f62c549a09ef3313fe187f29c099ff3c0 MATIC0.02435640048
0xc88886bb3f7961cfa9b0d2ac935eb768dd09a4f89aaa4529bac5cea8beb9f2c3Forward Meta Tx207072282021-10-28 15:08:225 hrs 3 mins ago0xd54b4f7f9dd537ebf24deec14abfdea14e34b062OUT 0x0babda04f62c549a09ef3313fe187f29c099ff3c0 MATIC0.0472848
0x7e0f256b8b6d0f36310392cbff447e698d21701b3d8e28fbbbf830622933b82fForward Meta Tx207067522021-10-28 14:52:005 hrs 19 mins ago0xd54b4f7f9dd537ebf24deec14abfdea14e34b062OUT 0x0babda04f62c549a09ef3313fe187f29c099ff3c0 MATIC0.012529836
0x75622913a834cb43b2f074e49b0b4ecd72b33d85c4cd88a4bddba0359a1122d5Forward Meta Tx207065612021-10-28 14:43:185 hrs 28 mins ago0xd54b4f7f9dd537ebf24deec14abfdea14e34b062OUT 0x0babda04f62c549a09ef3313fe187f29c099ff3c0 MATIC0.0354636
0xc009b3595334525e259d319772170ded577feaf87d5dcf5059a52d6245895cf4Execute Meta Tra...207060502021-10-28 14:25:185 hrs 46 mins ago0xd54b4f7f9dd537ebf24deec14abfdea14e34b062OUT 0xa5f1ea7df861952863df2e8d1312f7305dabf2150 MATIC0.003567947149
0xb5be5e6e11843d404267b460daebaabca02955186fd149123521ecb2aec57b3bExecute Meta Tra...207058762021-10-28 14:19:185 hrs 52 mins ago0xd54b4f7f9dd537ebf24deec14abfdea14e34b062OUT 0x4e7a0681545e606845905ad6ba931e47bfc3a75b0 MATIC0.004389066
0x8b2ce81b2d6e5ef4cb2fbd8161ce81993198233c052a0fbd67a69296316cc3e70x41706c4e207055832021-10-28 14:09:126 hrs 2 mins ago0xd54b4f7f9dd537ebf24deec14abfdea14e34b062OUT 0x86c80a8aa58e0a4fa09a69624c31ab2a6cad56b80 MATIC0.006258645
0x9edeef1010b6e68e9480377ac0f0e983135829dd20ed10f5d47231f5a74f811fForward Meta Tx207053282021-10-28 13:58:186 hrs 13 mins ago0xd54b4f7f9dd537ebf24deec14abfdea14e34b062OUT 0x0babda04f62c549a09ef3313fe187f29c099ff3c0 MATIC0.003016448
0x15281efa50b674675809ea80de9b88f4f3d730314713c5776d08c52b63ce31adExecute Meta Tra...207050402021-10-28 13:48:266 hrs 23 mins ago0xd54b4f7f9dd537ebf24deec14abfdea14e34b062OUT 0x89aac1f5ccdd54dd8a09e5c858f19a665e4fa32b0 MATIC0.00642465
[ Download CSV Export 
Parent Txn Hash Block From To Value
Loading

Contract Name:
0 MATIC

Compiler Version
0

Optimization Enabled:
0 MATIC

Other Settings:
-NA-
Block Transaction Gas Used Reward
Age Block Fee Address BC Fee Address Voting Power Jailed Incoming
Block Uncle Number Difficulty Gas Used Reward
Loading
Loading
Make sure to use the "Vote Down" button for any spammy posts, and the "Vote Up" for interesting conversations.